Time;durP1;ratioP1;P1;durP2;ratioP2;P2;SDS_P1;SDS_P2;PMS_P1;PMS_P2;Temp;Humidity;BMP_temperature;BMP_pressure;BME280_temperature;BME280_humidity;BME280_pressure;Samples;Min_cycle;Max_cycle;Signal;HPM_P1;HPM_P2
2023/10/20 00:00:06;;;;;;;5.22;3.15;;;19.80;66.20;;;;;;6279489;22;20082;-62
2023/10/20 00:02:33;;;;;;;4.53;2.97;;;19.90;66.20;;;;;;6305408;22;20450;-62
2023/10/20 00:04:59;;;;;;;5.53;3.45;;;19.80;66.10;;;;;;6305838;22;20477;-62
2023/10/20 00:07:26;;;;;;;4.32;2.70;;;19.90;66.20;;;;;;6279490;22;20012;-62
2023/10/20 00:09:53;;;;;;;5.07;3.10;;;19.80;66.10;;;;;;6279363;22;20015;-63
2023/10/20 00:12:19;;;;;;;4.88;2.90;;;19.80;66.10;;;;;;6277780;22;20019;-63
2023/10/20 00:14:45;;;;;;;5.00;3.25;;;19.80;66.10;;;;;;6279569;22;20047;-62
2023/10/20 00:17:10;;;;;;;5.20;3.25;;;19.80;66.10;;;;;;6277614;22;20054;-62
2023/10/20 00:19:36;;;;;;;4.90;3.05;;;19.80;66.10;;;;;;6278594;22;20025;-63
2023/10/20 00:22:01;;;;;;;6.07;3.03;;;19.80;66.10;;;;;;6306887;22;20500;-62
2023/10/20 00:24:27;;;;;;;5.65;2.95;;;19.80;66.10;;;;;;6279201;22;20540;-62
2023/10/20 00:26:52;;;;;;;6.18;2.83;;;19.80;66.10;;;;;;6305714;22;20065;-62
2023/10/20 00:29:19;;;;;;;6.20;3.58;;;19.80;66.10;;;;;;6279398;22;20015;-62
2023/10/20 00:31:44;;;;;;;6.13;3.40;;;19.80;66.00;;;;;;6279509;22;20019;-63
2023/10/20 00:34:10;;;;;;;5.35;3.28;;;19.80;66.00;;;;;;6278028;22;20030;-62
2023/10/20 00:36:35;;;;;;;6.57;3.35;;;19.80;66.00;;;;;;6279333;22;20029;-62
2023/10/20 00:39:02;;;;;;;6.00;3.30;;;19.80;66.00;;;;;;6306780;22;20015;-62
2023/10/20 00:41:28;;;;;;;5.55;3.45;;;19.80;65.90;;;;;;6305711;22;20027;-62
2023/10/20 00:43:53;;;;;;;5.78;3.20;;;19.70;65.80;;;;;;6279557;22;20018;-62
2023/10/20 00:46:19;;;;;;;6.85;3.20;;;19.70;65.90;;;;;;6278198;22;20026;-62
2023/10/20 00:48:45;;;;;;;7.07;3.80;;;19.70;65.80;;;;;;6229010;22;20086;-62
2023/10/20 00:51:10;;;;;;;5.85;3.47;;;19.70;65.80;;;;;;6278717;22;20026;-62
2023/10/20 00:53:36;;;;;;;5.85;3.53;;;19.70;65.80;;;;;;6278291;22;20355;-63
2023/10/20 00:56:04;;;;;;;5.85;3.58;;;19.70;65.80;;;;;;6278404;22;20047;-63
2023/10/20 00:58:29;;;;;;;6.20;4.03;;;19.70;65.80;;;;;;6306251;22;20030;-62
2023/10/20 01:00:55;;;;;;;6.13;3.92;;;19.70;65.70;;;;;;6252770;22;20436;-62
2023/10/20 01:03:22;;;;;;;6.55;3.80;;;19.70;65.70;;;;;;6279278;22;20030;-63
2023/10/20 01:05:47;;;;;;;6.53;3.80;;;19.70;65.70;;;;;;6278754;22;20092;-63
2023/10/20 01:08:14;;;;;;;5.68;3.58;;;19.70;65.70;;;;;;6227165;22;20020;-63
2023/10/20 01:10:39;;;;;;;6.90;3.85;;;19.60;65.60;;;;;;6306840;22;20015;-63
2023/10/20 01:13:05;;;;;;;6.95;4.00;;;19.70;65.60;;;;;;6279165;22;20022;-64
2023/10/20 01:15:30;;;;;;;6.72;4.05;;;19.60;65.50;;;;;;6305768;22;20019;-62
2023/10/20 01:17:56;;;;;;;6.10;4.13;;;19.70;65.50;;;;;;6253818;22;20023;-62
2023/10/20 01:20:23;;;;;;;7.15;3.08;;;19.70;65.50;;;;;;6279111;22;20022;-62
2023/10/20 01:22:48;;;;;;;5.80;3.60;;;19.70;65.50;;;;;;6277143;22;20348;-62
2023/10/20 01:25:14;;;;;;;5.63;3.58;;;19.70;65.50;;;;;;6278991;22;20454;-62
2023/10/20 01:27:40;;;;;;;6.70;3.88;;;19.60;65.50;;;;;;6306037;22;20436;-62
2023/10/20 01:30:06;;;;;;;5.53;3.72;;;19.70;65.50;;;;;;6278368;22;20023;-62
2023/10/20 01:32:32;;;;;;;6.82;3.95;;;19.60;65.50;;;;;;6253868;22;20448;-62
2023/10/20 01:34:57;;;;;;;6.45;3.78;;;19.60;65.50;;;;;;6279160;22;20011;-63
2023/10/20 01:37:23;;;;;;;6.20;3.72;;;19.60;65.40;;;;;;6305583;22;20324;-62
2023/10/20 01:39:48;;;;;;;6.20;3.88;;;19.60;65.30;;;;;;6280760;22;20018;-62
2023/10/20 01:42:14;;;;;;;6.90;4.20;;;19.60;65.30;;;;;;6308213;22;20016;-62
2023/10/20 01:44:40;;;;;;;6.50;3.67;;;19.60;65.30;;;;;;6280437;22;20011;-62
2023/10/20 01:47:05;;;;;;;6.53;3.90;;;19.60;65.40;;;;;;6281277;22;20011;-62
2023/10/20 01:49:31;;;;;;;6.10;3.95;;;19.60;65.40;;;;;;6279346;22;20021;-62
2023/10/20 01:51:57;;;;;;;7.00;4.25;;;19.60;65.40;;;;;;6281103;22;20031;-62
2023/10/20 01:54:23;;;;;;;5.53;3.63;;;19.50;65.30;;;;;;6280556;22;20043;-62
2023/10/20 01:56:49;;;;;;;8.13;4.25;;;19.60;65.40;;;;;;6279782;22;20666;-62
2023/10/20 01:59:15;;;;;;;5.85;3.80;;;19.50;65.30;;;;;;6280889;22;20017;-63
2023/10/20 02:01:41;;;;;;;6.82;3.92;;;19.50;65.30;;;;;;6308185;22;20023;-62
2023/10/20 02:04:07;;;;;;;6.88;4.13;;;19.50;65.20;;;;;;6307555;22;20098;-62
2023/10/20 02:06:33;;;;;;;6.57;3.90;;;19.50;65.20;;;;;;6280248;22;20015;-62
2023/10/20 02:08:59;;;;;;;6.55;4.00;;;19.50;65.10;;;;;;6280924;22;20027;-63
2023/10/20 02:11:25;;;;;;;6.10;3.90;;;19.50;65.10;;;;;;6306762;22;20007;-62
2023/10/20 02:13:50;;;;;;;6.20;4.10;;;19.50;65.10;;;;;;6308774;22;20347;-62
2023/10/20 02:16:16;;;;;;;6.28;4.40;;;19.50;65.00;;;;;;6308162;22;20026;-62
2023/10/20 02:18:41;;;;;;;7.40;4.63;;;19.50;65.00;;;;;;6280076;22;20023;-62
2023/10/20 02:21:09;;;;;;;8.15;4.28;;;19.50;65.10;;;;;;6279881;22;20021;-62
2023/10/20 02:23:35;;;;;;;6.50;3.88;;;19.40;65.00;;;;;;6279800;22;20023;-62
2023/10/20 02:26:05;;;;;;;6.78;4.30;;;19.50;65.00;;;;;;6279353;22;20015;-62
2023/10/20 02:28:34;;;;;;;7.57;4.40;;;19.50;64.90;;;;;;6280247;22;20023;-62
2023/10/20 02:31:01;;;;;;;7.13;4.38;;;19.50;64.90;;;;;;6307843;22;20015;-62
2023/10/20 02:33:27;;;;;;;7.07;4.05;;;19.40;64.90;;;;;;6307283;22;20023;-63
2023/10/20 02:35:54;;;;;;;7.20;4.18;;;19.50;64.90;;;;;;6307631;22;20017;-63
2023/10/20 02:38:20;;;;;;;7.90;4.90;;;19.50;64.90;;;;;;6307221;22;20019;-62
2023/10/20 02:40:50;;;;;;;6.60;4.05;;;19.40;64.80;;;;;;6279662;22;20324;-62
2023/10/20 02:43:15;;;;;;;7.15;4.18;;;19.40;64.90;;;;;;6307792;22;20071;-62
2023/10/20 02:45:54;;;;;;;6.95;4.40;;;19.40;64.80;;;;;;6308113;22;20039;-62
2023/10/20 02:48:20;;;;;;;6.68;4.15;;;19.40;64.80;;;;;;6280460;22;20030;-62
2023/10/20 02:50:46;;;;;;;7.80;4.32;;;19.40;64.80;;;;;;6280216;22;20011;-62
2023/10/20 02:53:13;;;;;;;5.93;3.67;;;19.40;64.90;;;;;;6279175;22;20056;-62
2023/10/20 02:55:40;;;;;;;6.00;3.97;;;19.40;64.90;;;;;;6307559;22;20019;-62
2023/10/20 02:58:05;;;;;;;6.35;3.72;;;19.40;65.00;;;;;;6307601;22;20317;-62
2023/10/20 03:00:31;;;;;;;7.00;4.13;;;19.40;64.90;;;;;;6278975;22;20420;-63
2023/10/20 03:02:58;;;;;;;6.30;3.80;;;19.40;65.00;;;;;;6280570;22;20027;-62
2023/10/20 03:05:27;;;;;;;6.35;4.13;;;19.40;65.00;;;;;;6306700;22;20053;-63
2023/10/20 03:07:53;;;;;;;5.80;3.55;;;19.40;65.00;;;;;;6279387;22;20343;-62
2023/10/20 03:10:20;;;;;;;6.97;4.07;;;19.40;65.00;;;;;;6306202;22;20432;-62
2023/10/20 03:12:45;;;;;;;5.93;3.75;;;19.40;65.70;;;;;;6278784;22;20094;-63
2023/10/20 03:15:11;;;;;;;6.07;3.85;;;19.40;65.00;;;;;;6279127;22;20039;-62
2023/10/20 03:17:36;;;;;;;6.18;3.83;;;19.50;65.10;;;;;;6280449;22;20019;-63
2023/10/20 03:20:08;;;;;;;5.85;3.55;;;19.40;65.00;;;;;;6280008;22;20370;-63
2023/10/20 03:22:34;;;;;;;4.85;3.13;;;19.40;65.00;;;;;;6279636;22;20369;-63
2023/10/20 03:25:00;;;;;;;5.80;3.78;;;19.50;65.10;;;;;;6280094;22;20022;-63
2023/10/20 03:27:25;;;;;;;5.07;3.22;;;19.50;65.10;;;;;;6279457;22;20019;-63
2023/10/20 03:29:51;;;;;;;8.40;3.50;;;19.50;65.00;;;;;;6279286;22;20018;-62
2023/10/20 03:32:17;;;;;;;5.60;3.63;;;19.50;65.00;;;;;;6279162;22;20394;-63
2023/10/20 03:34:42;;;;;;;6.38;3.70;;;19.50;65.00;;;;;;6279590;22;20015;-62
2023/10/20 03:37:08;;;;;;;5.32;3.67;;;19.50;65.00;;;;;;6278843;22;20102;-62
2023/10/20 03:39:34;;;;;;;6.10;3.75;;;19.50;65.00;;;;;;6307394;22;20023;-62
2023/10/20 03:42:02;;;;;;;5.47;3.33;;;19.50;65.00;;;;;;6278665;22;20067;-63
2023/10/20 03:44:27;;;;;;;5.82;3.80;;;19.50;65.00;;;;;;6279553;22;20457;-62
2023/10/20 03:46:56;;;;;;;5.97;3.53;;;19.60;65.00;;;;;;6279576;22;20043;-62
2023/10/20 03:49:22;;;;;;;6.03;3.75;;;19.60;65.00;;;;;;6278830;22;20098;-62
2023/10/20 03:51:49;;;;;;;5.88;3.35;;;19.60;65.00;;;;;;6307184;22;20059;-62
2023/10/20 03:54:16;;;;;;;5.00;2.97;;;19.60;65.00;;;;;;6279720;22;20039;-63
2023/10/20 03:56:42;;;;;;;5.45;3.53;;;19.60;65.00;;;;;;6278758;22;20592;-62
2023/10/20 03:59:11;;;;;;;5.22;3.35;;;19.70;65.00;;;;;;6277113;22;20016;-62
2023/10/20 04:01:38;;;;;;;4.93;3.28;;;19.60;65.00;;;;;;6277160;22;20455;-62
2023/10/20 04:04:08;;;;;;;5.32;3.28;;;19.60;65.00;;;;;;6277937;22;20098;-62
2023/10/20 04:06:35;;;;;;;6.50;3.90;;;19.60;65.00;;;;;;6253685;22;20015;-62
2023/10/20 04:09:01;;;;;;;5.38;3.67;;;19.70;65.00;;;;;;6306796;22;20469;-62
2023/10/20 04:11:27;;;;;;;4.82;3.17;;;19.70;65.00;;;;;;6305343;22;20069;-62
2023/10/20 04:13:53;;;;;;;5.18;3.42;;;19.70;65.00;;;;;;6278660;22;20022;-62
2023/10/20 04:16:19;;;;;;;5.95;3.83;;;19.70;64.90;;;;;;6306346;22;20019;-62
2023/10/20 04:18:46;;;;;;;5.25;3.40;;;19.70;64.90;;;;;;6278994;22;20019;-63
2023/10/20 04:21:12;;;;;;;4.90;2.92;;;19.70;64.90;;;;;;6277199;22;20086;-62
2023/10/20 04:23:38;;;;;;;5.60;3.30;;;19.70;64.80;;;;;;6278636;22;20388;-62
2023/10/20 04:26:05;;;;;;;5.55;3.35;;;19.80;64.90;;;;;;6304291;22;20107;-63
2023/10/20 04:28:38;;;;;;;6.47;3.33;;;19.80;64.90;;;;;;6279066;22;20094;-62
2023/10/20 04:52:55;;;;;;;5.38;3.13;;;19.80;64.60;;;;;;6278173;22;20031;-62
2023/10/20 04:57:53;;;;;;;5.38;3.50;;;19.80;64.60;;;;;;6306676;22;20023;-62
2023/10/20 05:07:57;;;;;;;5.65;3.05;;;19.90;64.50;;;;;;6273454;22;20437;-61
2023/10/20 05:10:23;;;;;;;4.70;3.17;;;19.80;64.40;;;;;;6275305;22;20401;-60
2023/10/20 05:12:49;;;;;;;4.97;3.25;;;19.90;64.50;;;;;;6274176;22;20027;-61
2023/10/20 05:15:15;;;;;;;4.68;2.97;;;19.90;64.40;;;;;;6275156;22;20020;-61
2023/10/20 05:17:40;;;;;;;6.32;3.08;;;19.90;64.40;;;;;;6276517;22;20020;-61
2023/10/20 05:20:12;;;;;;;4.90;3.25;;;19.90;64.30;;;;;;6276138;22;20124;-61
2023/10/20 05:22:41;;;;;;;5.88;3.33;;;19.90;64.30;;;;;;6277017;22;20023;-61
2023/10/20 05:25:08;;;;;;;5.57;2.92;;;19.90;64.20;;;;;;6276203;22;20016;-61
2023/10/20 05:27:33;;;;;;;4.78;3.03;;;19.90;64.20;;;;;;6274846;22;20343;-61
2023/10/20 05:29:59;;;;;;;5.07;2.90;;;19.90;64.20;;;;;;6275933;22;20439;-61
2023/10/20 05:32:24;;;;;;;5.18;3.20;;;19.90;64.20;;;;;;6277697;22;20332;-61
2023/10/20 05:34:53;;;;;;;5.53;3.30;;;19.90;64.10;;;;;;6275154;22;20070;-61
2023/10/20 05:37:21;;;;;;;5.35;3.30;;;19.90;64.10;;;;;;6275597;22;20110;-61
2023/10/20 05:39:47;;;;;;;5.57;2.88;;;19.90;64.00;;;;;;6277692;22;20015;-61
2023/10/20 05:42:12;;;;;;;4.57;2.75;;;19.90;64.00;;;;;;6276254;22;20011;-61
2023/10/20 05:44:47;;;;;;;4.35;2.65;;;19.90;64.00;;;;;;6276055;22;20501;-60
2023/10/20 05:47:13;;;;;;;5.13;3.03;;;19.90;64.00;;;;;;6275995;22;20016;-61
2023/10/20 05:49:39;;;;;;;5.30;2.78;;;19.90;63.90;;;;;;6275852;22;20028;-60
2023/10/20 05:52:05;;;;;;;4.15;2.47;;;19.90;63.90;;;;;;6276047;22;20020;-61
2023/10/20 05:54:31;;;;;;;5.40;2.70;;;19.90;63.90;;;;;;6275683;22;20023;-62
2023/10/20 05:56:57;;;;;;;7.65;3.17;;;19.90;63.80;;;;;;6274691;22;20027;-60
2023/10/20 05:59:22;;;;;;;4.95;2.58;;;19.90;63.70;;;;;;6275525;22;20102;-61
2023/10/20 06:01:48;;;;;;;6.05;3.75;;;20.00;63.60;;;;;;6293307;22;20022;-61
2023/10/20 06:04:13;;;;;;;5.50;3.20;;;19.90;63.50;;;;;;6279636;22;20019;-66
2023/10/20 06:06:39;;;;;;;7.05;3.10;;;19.90;63.60;;;;;;6280693;22;20027;-60
2023/10/20 06:09:06;;;;;;;7.65;3.30;;;20.00;63.60;;;;;;6308595;22;20011;-64
2023/10/20 06:11:35;;;;;;;5.97;3.28;;;20.00;63.70;;;;;;6306974;22;20019;-63
2023/10/20 06:14:00;;;;;;;6.55;2.80;;;20.00;63.70;;;;;;6308334;22;20327;-60
2023/10/20 06:16:26;;;;;;;6.75;3.03;;;20.00;63.70;;;;;;6307773;22;20015;-59
2023/10/20 06:18:52;;;;;;;5.75;3.08;;;20.00;63.70;;;;;;6307655;22;20072;-59
2023/10/20 06:21:17;;;;;;;7.82;3.20;;;20.00;63.70;;;;;;6307076;22;20011;-59
2023/10/20 06:23:43;;;;;;;6.95;2.65;;;20.00;63.60;;;;;;6307593;22;20046;-59
2023/10/20 06:26:09;;;;;;;8.82;3.00;;;20.00;63.70;;;;;;6279908;22;20096;-59
2023/10/20 06:28:35;;;;;;;6.45;2.75;;;20.00;64.40;;;;;;6308322;22;20029;-59
2023/10/20 06:31:01;;;;;;;5.70;2.70;;;20.00;63.80;;;;;;6307296;22;20011;-60
2023/10/20 06:33:33;;;;;;;6.15;3.20;;;20.00;63.90;;;;;;6307813;22;20223;-59
2023/10/20 06:36:22;;;;;;;8.35;2.80;;;20.00;63.90;;;;;;6308495;22;20015;-59
2023/10/20 06:38:47;;;;;;;7.35;2.60;;;20.00;63.90;;;;;;6306213;22;20027;-60
2023/10/20 06:41:16;;;;;;;7.97;2.88;;;20.00;63.90;;;;;;6308043;22;20332;-60
2023/10/20 06:43:41;;;;;;;5.35;2.53;;;20.00;63.90;;;;;;6308108;22;20019;-60
2023/10/20 06:46:07;;;;;;;5.78;2.92;;;20.10;64.00;;;;;;6307172;22;20513;-60
2023/10/20 06:48:32;;;;;;;4.85;2.58;;;20.10;63.90;;;;;;6307975;22;20060;-60
2023/10/20 06:50:58;;;;;;;5.55;2.47;;;20.10;63.80;;;;;;6307872;22;20020;-60
2023/10/20 06:53:25;;;;;;;4.30;2.38;;;20.10;63.80;;;;;;6306931;22;20019;-60
2023/10/20 06:55:50;;;;;;;6.72;2.67;;;20.10;63.70;;;;;;6280687;22;20043;-60
2023/10/20 06:58:18;;;;;;;5.07;2.70;;;20.10;63.60;;;;;;6280308;22;20060;-60
2023/10/20 07:00:44;;;;;;;;;;;20.10;63.50;;;;;;6307219;22;20435;-60
2023/10/20 07:03:10;;;;;;;6.35;2.70;;;20.10;63.50;;;;;;6305000;22;19921;-60
2023/10/20 07:05:39;;;;;;;5.78;2.67;;;20.10;63.50;;;;;;6307529;22;20317;-60
2023/10/20 07:08:05;;;;;;;;;;;20.10;63.40;;;;;;6307292;22;20463;-61
2023/10/20 07:10:39;;;;;;;5.70;2.45;;;20.10;63.50;;;;;;6279669;22;19964;-60
2023/10/20 07:13:08;;;;;;;3.58;2.20;;;20.10;63.40;;;;;;6306349;22;20102;-63
2023/10/20 07:15:34;;;;;;;6.38;2.63;;;20.10;63.30;;;;;;6307937;22;20061;-61
2023/10/20 07:18:00;;;;;;;5.03;2.80;;;20.20;63.40;;;;;;6280539;22;20502;-60
2023/10/20 07:20:26;;;;;;;5.72;2.08;;;20.10;63.30;;;;;;6306658;22;20054;-61
2023/10/20 07:22:52;;;;;;;5.50;2.63;;;20.20;63.30;;;;;;6307528;22;20026;-60
2023/10/20 07:25:18;;;;;;;6.10;2.50;;;20.20;63.30;;;;;;6307399;22;20090;-61
2023/10/20 07:27:43;;;;;;;4.53;2.38;;;20.20;63.20;;;;;;6306578;22;20030;-60
2023/10/20 07:30:10;;;;;;;3.65;2.03;;;20.20;63.20;;;;;;6306352;22;20019;-61
2023/10/20 07:32:36;;;;;;;3.72;2.05;;;20.20;63.10;;;;;;6307092;22;20439;-60
2023/10/20 07:35:03;;;;;;;5.10;2.10;;;20.20;63.10;;;;;;6305958;22;20026;-60
2023/10/20 07:37:29;;;;;;;3.67;2.00;;;20.20;63.00;;;;;;6278968;22;20019;-60
2023/10/20 07:39:55;;;;;;;4.47;2.25;;;20.20;62.90;;;;;;6279289;22;20019;-61
2023/10/20 07:42:20;;;;;;;3.90;2.22;;;20.20;62.80;;;;;;6306122;22;20379;-61
2023/10/20 07:44:46;;;;;;;5.82;2.22;;;20.10;62.80;;;;;;6307397;22;20098;-61
2023/10/20 07:47:12;;;;;;;5.15;2.47;;;20.10;62.80;;;;;;6306938;22;20099;-61
2023/10/20 07:49:38;;;;;;;4.75;2.50;;;20.10;62.90;;;;;;6278465;22;20116;-62
2023/10/20 07:52:03;;;;;;;5.18;2.10;;;20.10;62.80;;;;;;6279763;22;20019;-62
2023/10/20 07:54:33;;;;;;;7.35;2.03;;;20.10;62.70;;;;;;6305830;22;20376;-62
2023/10/20 07:56:58;;;;;;;6.97;2.25;;;20.10;62.70;;;;;;6306900;22;20041;-62
2023/10/20 07:59:24;;;;;;;4.28;2.40;;;20.10;62.60;;;;;;6279151;22;20023;-62
2023/10/20 08:01:50;;;;;;;6.00;2.25;;;20.10;62.60;;;;;;6277856;22;20436;-60
2023/10/20 08:04:16;;;;;;;6.82;2.17;;;20.10;62.50;;;;;;6305150;22;20447;-61
2023/10/20 08:06:42;;;;;;;6.93;2.72;;;20.10;62.50;;;;;;6279715;22;20512;-62
2023/10/20 08:09:12;;;;;;;5.90;2.28;;;20.00;62.30;;;;;;6306793;22;20156;-62
2023/10/20 08:11:39;;;;;;;5.70;2.72;;;20.00;62.40;;;;;;6278433;22;20027;-62
2023/10/20 08:14:05;;;;;;;6.80;2.22;;;20.00;62.20;;;;;;6307369;22;20023;-63
2023/10/20 08:16:30;;;;;;;4.22;2.25;;;20.00;62.20;;;;;;6305825;22;20015;-62
2023/10/20 08:18:56;;;;;;;5.35;1.98;;;20.00;62.10;;;;;;6279395;22;20374;-63
2023/10/20 08:21:29;;;;;;;5.22;2.42;;;20.00;62.20;;;;;;6306179;22;20042;-62
2023/10/20 08:23:55;;;;;;;3.72;1.90;;;20.00;62.20;;;;;;6278580;22;20028;-62
2023/10/20 08:26:21;;;;;;;4.70;2.10;;;20.00;62.10;;;;;;6306290;22;20476;-62
2023/10/20 08:28:48;;;;;;;3.97;2.00;;;20.00;62.10;;;;;;6279572;22;20021;-63
2023/10/20 08:31:16;;;;;;;3.67;1.90;;;20.00;62.10;;;;;;6276979;22;20011;-62
2023/10/20 08:33:42;;;;;;;4.03;2.22;;;20.00;62.20;;;;;;6279579;22;20023;-64
2023/10/20 08:36:15;;;;;;;5.97;2.13;;;20.00;62.20;;;;;;6278756;22;20039;-63
2023/10/20 08:38:42;;;;;;;5.40;2.15;;;20.00;62.20;;;;;;6278855;22;20026;-63
2023/10/20 08:41:11;;;;;;;5.55;1.92;;;20.00;62.10;;;;;;6306693;22;20068;-63
2023/10/20 08:43:39;;;;;;;4.55;1.60;;;20.00;62.10;;;;;;6279255;22;20019;-62
2023/10/20 08:46:05;;;;;;;3.67;1.90;;;19.90;62.10;;;;;;6306462;22;20023;-62
2023/10/20 08:48:31;;;;;;;3.03;1.73;;;20.00;62.30;;;;;;6278782;22;20025;-62
2023/10/20 08:50:57;;;;;;;4.68;2.08;;;19.90;62.30;;;;;;6280127;22;20431;-62
2023/10/20 08:53:22;;;;;;;3.53;1.88;;;19.90;62.30;;;;;;6250524;22;20023;-62
2023/10/20 08:55:48;;;;;;;3.75;1.55;;;19.90;62.30;;;;;;6306781;22;20015;-64
2023/10/20 08:58:13;;;;;;;3.58;1.70;;;19.90;63.10;;;;;;6278775;22;20046;-63
2023/10/20 09:00:39;;;;;;;5.75;1.80;;;19.90;62.50;;;;;;6278228;22;20076;-66
2023/10/20 09:03:04;;;;;;;4.13;1.65;;;19.90;62.50;;;;;;6279700;22;20058;-61
2023/10/20 09:05:30;;;;;;;3.67;1.52;;;19.90;62.50;;;;;;6305994;22;20058;-63
2023/10/20 09:07:56;;;;;;;4.13;1.75;;;19.90;62.50;;;;;;6279283;22;20039;-62
2023/10/20 09:10:22;;;;;;;5.63;1.95;;;19.90;62.70;;;;;;6306769;22;20023;-68
2023/10/20 09:12:48;;;;;;;3.30;1.52;;;19.90;62.80;;;;;;6278481;22;20023;-65
2023/10/20 09:15:14;;;;;;;6.57;2.00;;;19.90;62.80;;;;;;6253486;22;20439;-74
2023/10/20 09:17:39;;;;;;;5.13;1.40;;;19.90;62.80;;;;;;6279545;22;20023;-66
2023/10/20 09:20:07;;;;;;;7.15;1.80;;;19.90;62.90;;;;;;6305147;22;20047;-65
2023/10/20 09:22:32;;;;;;;3.80;1.70;;;20.00;63.00;;;;;;6306253;22;20015;-66
2023/10/20 09:24:58;;;;;;;6.57;1.67;;;20.00;63.00;;;;;;6306991;22;20442;-65
2023/10/20 09:27:24;;;;;;;3.70;1.67;;;20.00;63.20;;;;;;6305570;22;20044;-65
2023/10/20 09:29:51;;;;;;;5.68;1.67;;;19.90;63.20;;;;;;6279626;22;20021;-66
2023/10/20 09:32:16;;;;;;;5.72;1.42;;;19.90;63.20;;;;;;6253659;22;20117;-65
2023/10/20 09:34:42;;;;;;;3.45;1.50;;;19.90;63.20;;;;;;6278522;22;20019;-65
2023/10/20 09:37:09;;;;;;;4.95;1.45;;;19.90;63.30;;;;;;6306735;22;20023;-65
2023/10/20 09:39:42;;;;;;;5.47;1.58;;;19.90;63.30;;;;;;6306853;22;20016;-65
2023/10/20 09:42:08;;;;;;;6.75;1.90;;;19.90;63.30;;;;;;6251807;22;20023;-65
2023/10/20 09:44:38;;;;;;;6.80;1.50;;;19.90;63.40;;;;;;6228690;22;20015;-66
2023/10/20 09:47:13;;;;;;;3.45;1.40;;;19.90;63.40;;;;;;6254542;22;20030;-65
2023/10/20 09:49:39;;;;;;;4.00;1.30;;;19.90;63.40;;;;;;6228723;22;20090;-65
2023/10/20 09:52:05;;;;;;;5.32;1.55;;;19.90;64.00;;;;;;6228044;22;20402;-65
2023/10/20 09:54:32;;;;;;;6.93;1.40;;;19.90;63.40;;;;;;6277722;22;20016;-65
2023/10/20 09:56:57;;;;;;;4.30;1.40;;;19.90;63.40;;;;;;6277729;22;20439;-65
2023/10/20 09:59:24;;;;;;;4.43;1.10;;;19.90;63.40;;;;;;6228530;22;20032;-65
2023/10/20 10:01:49;;;;;;;6.22;1.23;;;19.90;63.30;;;;;;6279894;22;20047;-65
2023/10/20 10:04:23;;;;;;;5.68;1.10;;;19.90;63.30;;;;;;6254872;22;20015;-64
2023/10/20 10:06:49;;;;;;;3.80;1.00;;;19.90;63.20;;;;;;6281054;22;20470;-65
2023/10/20 10:09:15;;;;;;;1.88;1.00;;;19.90;63.20;;;;;;6279821;22;20008;-66
2023/10/20 10:11:44;;;;;;;6.47;1.10;;;19.90;63.20;;;;;;6279969;22;20019;-65
2023/10/20 10:14:18;;;;;;;3.67;1.00;;;19.90;63.20;;;;;;6278502;22;20016;-65
2023/10/20 10:16:53;;;;;;;3.42;1.20;;;19.90;63.00;;;;;;6280452;22;20022;-63
2023/10/20 10:19:18;;;;;;;6.20;1.20;;;19.90;63.00;;;;;;6280187;22;20027;-63
2023/10/20 10:21:48;;;;;;;5.65;1.27;;;19.90;63.20;;;;;;6280308;22;20022;-62
2023/10/20 10:24:16;;;;;;;6.57;1.00;;;19.90;63.30;;;;;;6305959;22;20019;-64
2023/10/20 10:26:57;;;;;;;2.50;0.97;;;19.90;63.20;;;;;;6307016;22;20015;-64
2023/10/20 10:29:49;;;;;;;5.68;0.90;;;20.00;63.20;;;;;;6280340;22;20262;-66
2023/10/20 10:32:17;;;;;;;4.25;1.02;;;20.00;63.20;;;;;;6306366;22;20016;-64
2023/10/20 10:34:43;;;;;;;;;;;20.00;63.20;;;;;;6280487;22;20049;-64
2023/10/20 10:37:08;;;;;;;5.20;1.00;;;20.00;63.20;;;;;;6306771;22;19915;-64
2023/10/20 10:39:34;;;;;;;2.55;0.90;;;20.00;63.10;;;;;;6280424;22;20034;-63
2023/10/20 10:42:03;;;;;;;2.25;1.00;;;20.00;63.10;;;;;;6308469;22;20046;-64
2023/10/20 10:44:36;;;;;;;2.85;1.10;;;20.00;63.10;;;;;;6279434;22;20022;-64
2023/10/20 10:47:05;;;;;;;3.80;1.27;;;20.00;63.10;;;;;;6280658;22;20351;-63
2023/10/20 10:49:33;;;;;;;4.88;0.85;;;20.00;63.10;;;;;;6279958;22;20047;-64
2023/10/20 10:52:04;;;;;;;3.65;1.20;;;20.00;63.10;;;;;;6307302;22;20020;-64
2023/10/20 10:54:33;;;;;;;4.00;0.88;;;20.00;63.10;;;;;;6280170;22;20011;-63
2023/10/20 10:57:00;;;;;;;5.75;1.00;;;20.00;63.10;;;;;;6308292;22;20094;-64
2023/10/20 10:59:27;;;;;;;3.87;0.90;;;20.00;63.10;;;;;;6306608;22;20016;-69
2023/10/20 11:01:52;;;;;;;6.38;0.95;;;20.00;63.00;;;;;;6280305;22;20019;-61
2023/10/20 11:04:18;;;;;;;4.60;1.00;;;20.00;63.00;;;;;;6277657;22;20146;-61
2023/10/20 11:06:43;;;;;;;9.05;1.10;;;20.10;63.00;;;;;;6252137;22;20027;-64
2023/10/20 11:09:10;;;;;;;5.93;1.10;;;20.10;63.00;;;;;;6279656;22;20012;-62
2023/10/20 11:11:42;;;;;;;7.53;1.15;;;20.10;63.00;;;;;;6279677;22;20019;-63
2023/10/20 11:14:12;;;;;;;4.28;1.10;;;20.10;62.90;;;;;;6278325;22;20474;-64
2023/10/20 11:16:38;;;;;;;4.90;1.00;;;20.20;62.60;;;;;;6280003;22;20019;-62
2023/10/20 11:19:03;;;;;;;3.97;0.80;;;20.20;62.30;;;;;;6279211;22;20116;-62
2023/10/20 11:21:29;;;;;;;4.00;0.80;;;20.30;62.30;;;;;;6306645;22;20034;-60
2023/10/20 11:23:57;;;;;;;5.47;0.90;;;20.30;62.30;;;;;;6279846;22;20454;-61
2023/10/20 11:26:24;;;;;;;;;;;20.30;62.50;;;;;;6279349;22;20431;-61
2023/10/20 11:28:52;;;;;;;3.40;0.70;;;20.30;62.60;;;;;;6307227;22;19910;-62
2023/10/20 11:31:19;;;;;;;;;;;20.30;62.60;;;;;;6279723;22;20465;-60
2023/10/20 11:33:44;;;;;;;3.33;0.50;;;20.30;62.80;;;;;;6278444;22;19966;-67
2023/10/20 11:36:10;;;;;;;3.90;0.65;;;20.30;62.40;;;;;;6278844;22;20023;-62
2023/10/20 11:38:35;;;;;;;4.82;0.90;;;20.30;62.20;;;;;;6307663;22;20050;-61
2023/10/20 11:41:01;;;;;;;5.65;0.90;;;20.30;62.10;;;;;;6306234;22;20216;-61
2023/10/20 11:43:27;;;;;;;4.78;0.80;;;20.30;62.10;;;;;;6279861;22;20422;-60
2023/10/20 11:45:53;;;;;;;3.88;1.02;;;20.40;62.00;;;;;;6306932;22;20011;-63
2023/10/20 11:48:18;;;;;;;5.95;0.88;;;20.40;61.80;;;;;;6306005;22;20023;-62
2023/10/20 11:50:44;;;;;;;5.13;0.80;;;20.50;61.70;;;;;;6279697;22;20312;-63
2023/10/20 11:53:12;;;;;;;2.83;0.73;;;20.50;61.60;;;;;;6279037;22;20022;-63
2023/10/20 11:55:37;;;;;;;2.50;0.65;;;20.50;61.50;;;;;;6306087;22;20085;-71
2023/10/20 11:58:04;;;;;;;2.72;0.80;;;20.50;61.40;;;;;;6307290;22;20393;-62
2023/10/20 12:00:29;;;;;;;5.38;0.90;;;20.50;61.50;;;;;;6279095;22;20019;-61
2023/10/20 12:02:55;;;;;;;4.60;0.68;;;20.50;61.50;;;;;;6278391;22;20034;-61
2023/10/20 12:05:20;;;;;;;5.82;0.80;;;20.50;61.60;;;;;;6279283;22;20023;-62
2023/10/20 12:07:46;;;;;;;3.13;0.70;;;20.50;61.70;;;;;;6278705;22;20023;-61
2023/10/20 12:10:15;;;;;;;3.05;0.82;;;20.50;61.80;;;;;;6278083;22;20023;-61
2023/10/20 12:12:40;;;;;;;3.08;0.70;;;20.50;61.80;;;;;;6279581;22;20023;-62
2023/10/20 12:15:07;;;;;;;4.68;0.57;;;20.50;61.80;;;;;;6253340;22;20022;-62
2023/10/20 12:17:33;;;;;;;4.25;0.70;;;20.50;61.90;;;;;;6278766;22;20038;-63
2023/10/20 12:19:58;;;;;;;1.92;0.52;;;20.50;61.80;;;;;;6279798;22;20073;-62
2023/10/20 12:22:25;;;;;;;4.00;0.60;;;20.50;61.80;;;;;;6305458;22;20086;-63
2023/10/20 12:24:51;;;;;;;4.30;0.70;;;20.50;61.90;;;;;;6278849;22;20309;-63
2023/10/20 12:27:17;;;;;;;2.70;0.60;;;20.50;62.00;;;;;;6279427;22;20408;-63
2023/10/20 12:29:42;;;;;;;2.25;0.70;;;20.50;62.10;;;;;;6278594;22;20015;-63
2023/10/20 12:32:12;;;;;;;6.35;0.70;;;20.50;62.10;;;;;;6279150;22;20030;-63
2023/10/20 12:34:38;;;;;;;6.80;0.60;;;20.60;62.20;;;;;;6306835;22;20019;-62
2023/10/20 12:37:05;;;;;;;5.18;0.40;;;20.60;62.20;;;;;;6306042;22;20074;-62
2023/10/20 12:39:31;;;;;;;4.00;0.57;;;20.60;62.30;;;;;;6278792;22;20091;-62
2023/10/20 12:42:02;;;;;;;1.40;0.60;;;20.60;62.30;;;;;;6279506;22;20015;-62
2023/10/20 12:44:28;;;;;;;1.63;0.60;;;20.60;62.30;;;;;;6305507;22;20022;-62
2023/10/20 12:46:53;;;;;;;4.65;0.60;;;20.60;62.30;;;;;;6279612;22;20034;-60
2023/10/20 12:49:19;;;;;;;1.98;0.50;;;20.60;62.40;;;;;;6306425;22;20023;-60
2023/10/20 12:51:44;;;;;;;4.28;0.50;;;20.60;62.30;;;;;;6305952;22;20018;-61
2023/10/20 12:54:10;;;;;;;2.13;0.52;;;20.60;62.30;;;;;;6279110;22;20026;-64
2023/10/20 12:56:35;;;;;;;2.85;0.60;;;20.60;62.40;;;;;;6279397;22;20019;-60
2023/10/20 12:59:01;;;;;;;3.58;0.63;;;20.60;62.40;;;;;;6278546;22;20023;-63
2023/10/20 13:01:26;;;;;;;3.38;0.50;;;20.60;62.50;;;;;;6273757;22;20015;-61
2023/10/20 13:03:52;;;;;;;2.35;0.50;;;20.60;62.50;;;;;;6275697;22;20019;-63
2023/10/20 13:06:18;;;;;;;4.53;0.50;;;20.70;62.50;;;;;;6273102;22;20026;-63
2023/10/20 13:08:45;;;;;;;2.25;0.70;;;20.70;62.60;;;;;;6274192;22;20475;-62
2023/10/20 13:11:11;;;;;;;4.95;0.70;;;20.60;62.60;;;;;;6275579;22;20030;-62
2023/10/20 13:13:36;;;;;;;4.50;0.93;;;20.60;62.60;;;;;;6273079;22;20024;-63
2023/10/20 13:16:02;;;;;;;2.33;0.57;;;20.70;62.70;;;;;;6273530;22;20020;-66